KSTK/STK METAR and TAF weather

Enter ICAO airport designator
Station Type Date Time Source
KSTK METAR 2020/07/11 04:30 UTC NOAA

KSTK 110430Z AUTO 19004KT 10SM CLR 26/07 A3003 RMK AO2


Station Type Date Time Source
KSTK Decoded METAR 2020/07/11 04:30 UTC NOAA

Station name not available
Jul 11, 2020 - 12:30 AM EDT / 2020.07.11 0430 UTC
Wind: from the S (190 degrees) at 5 MPH (4 KT):0
Visibility: 10 mile(s):0
Sky conditions: clear
Temperature: 78 F (26 C)
Dew Point: 44 F (7 C)
Relative Humidity: 29%
Pressure (altimeter): 30.03 in. Hg (1016 hPa)
ob: KSTK 110430Z AUTO 19004KT 10SM CLR 26/07 A3003 RMK AO2
cycle: 4

Station Type Date Time Source
KSTK TAF UTC NOAA

Error!

Example: see airport list